createdAt,value
2022-12-22T00:01:29.191Z,59.64
2022-12-22T00:04:14.917Z,59.33
2022-12-22T00:07:00.874Z,59.69
2022-12-22T00:09:47.506Z,59.26
2022-12-22T00:12:34.547Z,59.50
2022-12-22T00:15:19.865Z,59.58
2022-12-22T00:18:05.097Z,59.52
2022-12-22T00:20:50.657Z,59.56
2022-12-22T00:23:35.862Z,59.55
2022-12-22T00:26:22.971Z,59.35
2022-12-22T00:29:08.654Z,59.56
2022-12-22T00:31:53.935Z,59.57
2022-12-22T00:34:40.879Z,59.62
2022-12-22T00:37:30.349Z,59.10
2022-12-22T00:40:16.471Z,59.30
2022-12-22T00:43:02.992Z,58.91
2022-12-22T00:45:49.200Z,59.04
2022-12-22T00:48:39.566Z,59.47
2022-12-22T00:51:25.841Z,59.46
2022-12-22T00:54:11.208Z,59.68
2022-12-22T00:56:56.228Z,59.17
2022-12-22T00:59:42.726Z,59.27
2022-12-22T01:02:28.111Z,59.07
2022-12-22T01:05:13.239Z,58.94
2022-12-22T01:07:59.069Z,59.13
2022-12-22T01:10:45.147Z,59.06
2022-12-22T01:13:31.412Z,59.06
2022-12-22T01:16:18.434Z,59.41
2022-12-22T01:19:03.583Z,59.21
2022-12-22T01:21:49.407Z,58.97
2022-12-22T01:24:36.575Z,59.33
2022-12-22T01:27:22.782Z,59.21
2022-12-22T01:30:08.027Z,59.59
2022-12-22T01:32:54.520Z,59.30
2022-12-22T01:35:42.334Z,59.40
2022-12-22T01:38:27.986Z,59.68
2022-12-22T01:41:15.297Z,59.17
2022-12-22T01:44:01.175Z,59.31
2022-12-22T01:46:48.463Z,59.11
2022-12-22T01:49:39.877Z,59.43
2022-12-22T01:52:29.620Z,59.40
2022-12-22T01:55:20.009Z,59.68
2022-12-22T01:58:05.552Z,59.25
2022-12-22T02:00:50.803Z,59.73
2022-12-22T02:03:37.879Z,59.41
2022-12-22T02:06:37.748Z,59.70
2022-12-22T02:09:38.541Z,59.57
2022-12-22T02:12:29.802Z,60.03
2022-12-22T02:15:23.582Z,59.50
2022-12-22T02:18:21.009Z,60.02
2022-12-22T02:21:10.867Z,59.91
2022-12-22T02:24:09.650Z,60.17
2022-12-22T02:27:01.083Z,59.70
2022-12-22T02:29:49.608Z,59.50
2022-12-22T02:32:34.948Z,59.98
2022-12-22T02:35:20.392Z,59.92
2022-12-22T02:38:11.917Z,59.90
2022-12-22T02:41:06.151Z,60.00
2022-12-22T02:44:08.330Z,59.80
2022-12-22T02:47:00.373Z,59.94
2022-12-22T02:49:52.377Z,60.03
2022-12-22T02:52:43.854Z,59.65
2022-12-22T02:55:29.640Z,59.80
2022-12-22T02:58:18.025Z,59.97
2022-12-22T03:01:05.083Z,59.99
2022-12-22T03:03:50.856Z,59.95
2022-12-22T03:06:36.388Z,59.81
2022-12-22T03:09:22.383Z,60.09
2022-12-22T03:12:07.868Z,59.93
2022-12-22T03:14:53.123Z,60.01
2022-12-22T03:17:39.908Z,59.99
2022-12-22T03:20:26.630Z,60.14
2022-12-22T03:23:11.918Z,60.06
2022-12-22T03:25:52.538Z,60.17
2022-12-22T03:28:21.993Z,59.55
2022-12-22T03:31:01.137Z,60.06
2022-12-22T03:33:32.390Z,59.71
2022-12-22T03:36:01.247Z,59.92
2022-12-22T03:38:29.753Z,59.52
2022-12-22T03:40:57.623Z,59.83
2022-12-22T03:43:43.693Z,59.63
2022-12-22T03:46:30.430Z,59.64
2022-12-22T03:49:12.642Z,59.72
2022-12-22T03:51:43.538Z,59.58
2022-12-22T03:54:12.719Z,59.81
2022-12-22T03:56:41.248Z,59.49
2022-12-22T03:59:09.674Z,59.95
2022-12-22T04:01:42.696Z,59.65
2022-12-22T04:04:14.049Z,59.95
2022-12-22T04:06:43.222Z,60.15
2022-12-22T04:09:11.203Z,59.90
2022-12-22T04:11:56.674Z,60.09
2022-12-22T04:14:31.355Z,59.87
2022-12-22T04:17:01.875Z,59.64
2022-12-22T04:19:31.011Z,59.73
2022-12-22T04:21:58.963Z,59.90
2022-12-22T04:24:26.889Z,59.98
2022-12-22T04:26:54.940Z,60.37
2022-12-22T04:29:22.744Z,59.86
2022-12-22T04:31:50.744Z,59.86
2022-12-22T04:34:18.557Z,59.92
2022-12-22T04:36:47.810Z,59.77
2022-12-22T04:39:15.588Z,60.13
2022-12-22T04:41:44.646Z,60.11
2022-12-22T04:44:12.477Z,60.21
2022-12-22T04:46:40.377Z,60.18
2022-12-22T04:49:08.297Z,60.36
2022-12-22T04:51:36.106Z,60.23
2022-12-22T04:54:05.322Z,59.94
2022-12-22T04:56:33.122Z,59.87
2022-12-22T04:59:01.240Z,60.20
2022-12-22T05:01:29.301Z,60.11
2022-12-22T05:03:57.154Z,60.13
2022-12-22T05:06:24.961Z,60.24
2022-12-22T05:08:53.000Z,59.94
2022-12-22T05:11:22.438Z,59.85
2022-12-22T05:13:50.200Z,60.28
2022-12-22T05:16:18.756Z,59.65
2022-12-22T05:18:47.005Z,60.02
2022-12-22T05:21:17.448Z,60.06
2022-12-22T05:23:45.887Z,60.28
2022-12-22T05:26:15.467Z,59.86
2022-12-22T05:28:46.177Z,60.03
2022-12-22T05:31:17.360Z,59.76
2022-12-22T05:33:45.323Z,60.34
2022-12-22T05:36:13.095Z,60.49
2022-12-22T05:38:41.276Z,60.22
2022-12-22T05:41:09.544Z,60.49
2022-12-22T05:43:37.949Z,60.07
2022-12-22T05:46:09.771Z,60.14
2022-12-22T05:48:39.791Z,60.41
2022-12-22T05:51:08.922Z,60.26
2022-12-22T05:53:37.097Z,60.41
2022-12-22T05:56:05.602Z,60.04
2022-12-22T05:58:33.931Z,60.43
2022-12-22T06:01:02.281Z,60.25
2022-12-22T06:03:31.624Z,59.95
2022-12-22T06:05:59.800Z,60.07
2022-12-22T06:08:28.235Z,59.94
2022-12-22T06:10:57.061Z,60.35
2022-12-22T06:13:25.586Z,60.05
2022-12-22T06:15:53.471Z,60.05
2022-12-22T06:18:21.569Z,60.39
2022-12-22T06:20:52.386Z,60.18
2022-12-22T06:23:20.303Z,60.03
2022-12-22T06:25:55.304Z,60.02
2022-12-22T06:28:23.340Z,60.11
2022-12-22T06:30:51.136Z,59.89
2022-12-22T06:33:19.054Z,60.23
2022-12-22T06:35:50.769Z,59.72
2022-12-22T06:38:23.006Z,60.20
2022-12-22T06:40:50.779Z,59.81
2022-12-22T06:43:17.578Z,60.14
2022-12-22T06:45:45.630Z,60.21
2022-12-22T06:48:18.729Z,60.28
2022-12-22T06:50:47.185Z,60.00
2022-12-22T06:53:15.123Z,59.73
2022-12-22T06:55:44.416Z,60.17
2022-12-22T06:58:12.219Z,59.91
2022-12-22T07:00:40.127Z,60.07
2022-12-22T07:03:08.161Z,60.16
2022-12-22T07:05:36.165Z,60.38
2022-12-22T07:08:08.464Z,59.94
2022-12-22T07:10:54.781Z,60.47
2022-12-22T07:13:24.496Z,60.20
2022-12-22T07:16:00.068Z,59.84
2022-12-22T07:18:30.459Z,59.77
2022-12-22T07:20:58.547Z,60.16
2022-12-22T07:23:27.019Z,60.21
2022-12-22T07:25:54.908Z,60.30
2022-12-22T07:28:24.223Z,60.13
2022-12-22T07:30:52.960Z,59.94
2022-12-22T07:33:20.870Z,59.87
2022-12-22T07:35:48.732Z,59.86
2022-12-22T07:38:16.535Z,59.90
2022-12-22T07:40:47.966Z,60.24
2022-12-22T07:43:18.526Z,60.22
2022-12-22T07:45:47.651Z,59.73
2022-12-22T07:48:29.402Z,60.14
2022-12-22T07:51:04.250Z,60.16
2022-12-22T07:53:32.229Z,59.90
2022-12-22T07:56:03.780Z,59.85
2022-12-22T07:58:31.992Z,59.50
2022-12-22T08:01:02.501Z,59.94
2022-12-22T08:03:30.531Z,59.60
2022-12-22T08:05:58.294Z,59.76
2022-12-22T08:08:26.236Z,59.95
2022-12-22T08:10:54.084Z,59.69
2022-12-22T08:13:21.957Z,59.54
2022-12-22T08:15:49.808Z,60.15
2022-12-22T08:18:19.021Z,59.61
2022-12-22T08:20:50.645Z,60.02
2022-12-22T08:23:18.548Z,59.62
2022-12-22T08:25:48.791Z,59.62
2022-12-22T08:28:17.930Z,60.14
2022-12-22T08:30:47.105Z,59.82
2022-12-22T08:33:15.198Z,59.52
2022-12-22T08:35:44.649Z,59.63
2022-12-22T08:38:14.063Z,60.07
2022-12-22T08:40:45.102Z,59.73
2022-12-22T08:43:13.535Z,59.56
2022-12-22T08:45:42.587Z,60.04
2022-12-22T08:48:10.508Z,59.79
2022-12-22T08:50:38.264Z,60.09
2022-12-22T08:53:18.831Z,59.65
2022-12-22T08:55:57.602Z,60.20
2022-12-22T08:58:25.455Z,59.94
2022-12-22T09:00:53.270Z,60.05
2022-12-22T09:03:21.094Z,59.92
2022-12-22T09:05:48.940Z,59.88
2022-12-22T09:08:18.069Z,60.10
2022-12-22T09:10:45.895Z,59.77
2022-12-22T09:13:13.698Z,59.71
2022-12-22T09:15:41.528Z,59.83
2022-12-22T09:18:09.336Z,59.63
2022-12-22T09:20:37.293Z,60.15
2022-12-22T09:23:05.093Z,59.81
2022-12-22T09:25:35.986Z,60.01
2022-12-22T09:28:04.016Z,59.77
2022-12-22T09:30:31.818Z,59.98
2022-12-22T09:32:59.777Z,59.55
2022-12-22T09:35:27.491Z,59.67
2022-12-22T09:37:55.269Z,60.02
2022-12-22T09:40:24.718Z,60.00
2022-12-22T09:42:54.194Z,59.91
2022-12-22T09:45:22.135Z,59.72
2022-12-22T09:47:53.775Z,60.21
2022-12-22T09:50:24.320Z,60.20
2022-12-22T09:52:54.996Z,59.86
2022-12-22T09:55:38.549Z,60.30
2022-12-22T09:58:23.965Z,60.16
2022-12-22T10:01:01.654Z,60.20
2022-12-22T10:03:36.157Z,59.69
2022-12-22T10:06:12.115Z,59.71
2022-12-22T10:08:41.255Z,60.04
2022-12-22T10:11:13.435Z,59.78
2022-12-22T10:13:43.074Z,59.82
2022-12-22T10:16:22.544Z,59.43
2022-12-22T10:19:00.034Z,59.37
2022-12-22T10:21:30.100Z,59.74
2022-12-22T10:23:57.955Z,59.54
2022-12-22T10:26:30.880Z,59.78
2022-12-22T10:29:04.733Z,59.83
2022-12-22T10:31:34.982Z,60.04
2022-12-22T10:34:13.707Z,59.91
2022-12-22T10:36:43.236Z,59.85
2022-12-22T10:39:12.201Z,59.73
2022-12-22T10:41:45.762Z,59.45
2022-12-22T10:44:24.366Z,59.69
2022-12-22T10:46:54.219Z,59.45
2022-12-22T10:49:24.249Z,59.41
2022-12-22T10:51:55.367Z,59.86
2022-12-22T10:54:36.030Z,59.53
2022-12-22T10:57:07.529Z,59.66
2022-12-22T10:59:50.085Z,59.82
2022-12-22T11:02:31.826Z,60.22
2022-12-22T11:05:06.440Z,59.62
2022-12-22T11:07:36.718Z,60.32
2022-12-22T11:10:16.606Z,59.78
2022-12-22T11:12:57.438Z,60.37
2022-12-22T11:15:35.734Z,60.57
2022-12-22T11:18:14.800Z,60.66
2022-12-22T11:20:53.000Z,60.13
2022-12-22T11:23:30.688Z,60.73
2022-12-22T11:26:08.530Z,60.32
2022-12-22T11:28:52.425Z,60.12
2022-12-22T11:31:40.166Z,59.51
2022-12-22T11:34:23.214Z,59.81
2022-12-22T11:36:58.389Z,60.62
2022-12-22T11:39:37.908Z,60.13
2022-12-22T11:42:22.197Z,60.28
2022-12-22T11:45:01.092Z,60.06
2022-12-22T11:47:41.513Z,59.91
2022-12-22T11:50:58.555Z,59.57
2022-12-22T11:53:51.265Z,59.02
2022-12-22T11:56:24.221Z,59.11
2022-12-22T11:59:09.638Z,58.23
2022-12-22T12:01:55.242Z,57.99
2022-12-22T12:04:38.704Z,58.32
2022-12-22T12:07:25.947Z,58.36
2022-12-22T12:10:04.506Z,57.76
2022-12-22T12:12:42.321Z,57.34
2022-12-22T12:15:23.734Z,57.96
2022-12-22T12:18:13.994Z,57.34
2022-12-22T12:20:52.257Z,57.68
2022-12-22T12:23:41.069Z,57.85
2022-12-22T12:26:16.851Z,57.82
2022-12-22T12:28:53.930Z,57.28
2022-12-22T12:31:26.756Z,57.45
2022-12-22T12:33:59.196Z,57.84
2022-12-22T12:36:40.261Z,57.25
2022-12-22T12:39:18.024Z,57.21
2022-12-22T12:41:59.219Z,56.72
2022-12-22T12:44:31.551Z,57.54
2022-12-22T12:47:08.956Z,56.69
2022-12-22T12:50:25.121Z,55.51
2022-12-22T12:53:09.826Z,56.22
2022-12-22T12:56:02.033Z,55.63
2022-12-22T12:58:50.433Z,55.78
2022-12-22T13:01:55.927Z,56.09
2022-12-22T13:04:57.379Z,55.98
2022-12-22T13:07:58.528Z,56.15
2022-12-22T13:10:28.010Z,56.81
2022-12-22T13:12:58.013Z,56.72
2022-12-22T13:15:31.349Z,55.95
2022-12-22T13:17:59.751Z,56.67
2022-12-22T13:20:32.247Z,56.19
2022-12-22T13:23:02.762Z,56.29
2022-12-22T13:25:42.167Z,55.60
2022-12-22T13:28:16.095Z,55.95
2022-12-22T13:30:48.617Z,55.96
2022-12-22T13:33:18.704Z,56.19
2022-12-22T13:35:53.425Z,55.63
2022-12-22T13:38:30.216Z,55.54
2022-12-22T13:41:01.038Z,55.79
2022-12-22T13:43:31.717Z,55.90
2022-12-22T13:46:02.259Z,55.91
2022-12-22T13:48:43.560Z,55.08
2022-12-22T13:51:18.919Z,55.69
2022-12-22T13:54:08.241Z,55.79
2022-12-22T13:56:40.751Z,55.12
2022-12-22T13:59:28.948Z,55.27
2022-12-22T14:02:02.350Z,55.02
2022-12-22T14:04:31.578Z,55.19
2022-12-22T14:07:11.407Z,54.69
2022-12-22T14:09:43.617Z,55.59
2022-12-22T14:12:16.558Z,55.59
2022-12-22T14:14:46.570Z,55.27
2022-12-22T14:17:23.513Z,54.57
2022-12-22T14:19:53.681Z,55.51
2022-12-22T14:22:26.886Z,55.02
2022-12-22T14:24:57.996Z,55.54
2022-12-22T14:27:34.310Z,54.97
2022-12-22T14:30:05.500Z,55.43
2022-12-22T14:32:37.764Z,55.67
2022-12-22T14:35:16.201Z,55.69
2022-12-22T14:37:44.045Z,55.48
2022-12-22T14:40:28.942Z,55.37
2022-12-22T14:42:59.933Z,55.58
2022-12-22T14:45:27.919Z,56.00
2022-12-22T14:47:57.227Z,55.79
2022-12-22T14:50:27.554Z,55.19
2022-12-22T14:52:56.985Z,55.45
2022-12-22T14:55:29.937Z,54.70
2022-12-22T14:58:02.510Z,55.10
2022-12-22T15:00:35.886Z,55.46
2022-12-22T15:03:06.463Z,54.97
2022-12-22T15:05:37.986Z,55.10
2022-12-22T15:08:09.280Z,55.75
2022-12-22T15:10:43.917Z,55.26
2022-12-22T15:13:19.994Z,54.88
2022-12-22T15:15:47.888Z,55.53
2022-12-22T15:18:16.755Z,55.72
2022-12-22T15:20:44.733Z,55.59
2022-12-22T15:23:17.420Z,55.14
2022-12-22T15:25:45.228Z,56.16
2022-12-22T15:28:14.453Z,55.63
2022-12-22T15:30:42.947Z,55.60
2022-12-22T15:33:15.268Z,55.15
2022-12-22T15:35:44.274Z,55.78
2022-12-22T15:38:15.918Z,55.23
2022-12-22T15:40:44.666Z,55.67
2022-12-22T15:43:55.081Z,55.47
2022-12-22T15:46:03.517Z,55.69
2022-12-22T15:48:34.103Z,55.34
2022-12-22T15:51:03.671Z,55.86
2022-12-22T15:53:33.932Z,55.68
2022-12-22T15:56:02.285Z,55.68
2022-12-22T15:58:35.620Z,55.36
2022-12-22T16:01:03.606Z,55.22
2022-12-22T16:03:31.651Z,55.75
2022-12-22T16:06:00.588Z,55.57
2022-12-22T16:08:32.083Z,55.85
2022-12-22T16:11:00.510Z,55.90
2022-12-22T16:13:29.459Z,55.94
2022-12-22T16:15:59.735Z,56.00
2022-12-22T16:18:27.844Z,55.64
2022-12-22T16:20:56.661Z,56.00
2022-12-22T16:23:27.011Z,56.07
2022-12-22T16:26:01.797Z,55.81
2022-12-22T16:28:30.885Z,55.86
2022-12-22T16:31:00.941Z,56.38
2022-12-22T16:33:29.008Z,56.49
2022-12-22T16:35:56.814Z,56.37
2022-12-22T16:38:24.837Z,56.26
2022-12-22T16:40:54.315Z,56.17
2022-12-22T16:46:17.651Z,56.01
2022-12-22T16:48:48.851Z,56.38
2022-12-22T16:51:20.254Z,56.67
2022-12-22T16:53:48.190Z,56.57
2022-12-22T16:56:19.101Z,56.46
2022-12-22T16:58:47.325Z,56.57
2022-12-22T17:01:27.194Z,57.01
2022-12-22T17:03:55.937Z,56.58
2022-12-22T17:06:23.960Z,56.99
2022-12-22T17:08:52.077Z,56.77
2022-12-22T17:11:23.550Z,57.22
2022-12-22T17:13:54.454Z,56.62
2022-12-22T17:16:24.238Z,56.89
2022-12-22T17:18:52.173Z,56.77
2022-12-22T17:21:21.730Z,56.92
2022-12-22T17:23:52.247Z,56.75
2022-12-22T17:26:23.901Z,57.25
2022-12-22T17:28:54.832Z,56.82
2022-12-22T17:31:24.302Z,57.00
2022-12-22T17:33:52.775Z,56.83
2022-12-22T17:36:29.210Z,57.37
2022-12-22T17:38:57.378Z,56.86
2022-12-22T17:41:25.222Z,57.17
2022-12-22T17:43:53.328Z,56.89
2022-12-22T17:46:22.715Z,57.19
2022-12-22T17:48:52.078Z,57.29
2022-12-22T17:51:23.850Z,57.48
2022-12-22T17:53:52.533Z,57.59
2022-12-22T17:56:22.543Z,57.57
2022-12-22T17:58:50.945Z,57.25
2022-12-22T18:01:28.033Z,57.61
2022-12-22T18:03:57.858Z,57.63
2022-12-22T18:06:30.626Z,57.47
2022-12-22T18:08:58.968Z,57.30
2022-12-22T18:11:27.461Z,57.32
2022-12-22T18:13:57.211Z,57.64
2022-12-22T18:16:25.461Z,57.77
2022-12-22T18:18:53.393Z,57.39
2022-12-22T18:21:24.886Z,57.58
2022-12-22T18:23:53.349Z,57.60
2022-12-22T18:26:23.439Z,57.50
2022-12-22T18:28:51.739Z,57.46
2022-12-22T18:31:20.179Z,57.77
2022-12-22T18:33:48.185Z,57.75
2022-12-22T18:36:18.852Z,57.47
2022-12-22T18:38:49.508Z,57.31
2022-12-22T18:41:21.889Z,57.41
2022-12-22T18:43:50.390Z,57.99
2022-12-22T18:46:18.493Z,57.86
2022-12-22T18:48:48.153Z,57.58
2022-12-22T18:51:21.423Z,57.81
2022-12-22T18:53:52.362Z,57.66
2022-12-22T18:56:20.672Z,57.47
2022-12-22T18:58:48.687Z,57.29
2022-12-22T19:01:23.143Z,57.68
2022-12-22T19:03:53.336Z,57.59
2022-12-22T19:06:22.653Z,57.20
2022-12-22T19:08:52.334Z,57.87
2022-12-22T19:11:25.703Z,57.78
2022-12-22T19:13:53.732Z,57.82
2022-12-22T19:16:25.938Z,57.50
2022-12-22T19:18:53.842Z,57.90
2022-12-22T19:21:22.124Z,57.75
2022-12-22T19:23:51.321Z,57.85
2022-12-22T19:26:22.776Z,57.93
2022-12-22T19:28:54.300Z,57.61
2022-12-22T19:31:25.734Z,57.70
2022-12-22T19:33:54.395Z,57.61
2022-12-22T19:36:26.290Z,58.06
2022-12-22T19:39:05.781Z,57.69
2022-12-22T19:41:43.177Z,58.18
2022-12-22T19:44:20.359Z,58.22
2022-12-22T19:46:48.903Z,58.11
2022-12-22T19:49:18.515Z,58.06
2022-12-22T19:51:46.609Z,58.23
2022-12-22T19:54:16.459Z,57.93
2022-12-22T19:56:47.518Z,58.13
2022-12-22T19:59:28.135Z,58.04
2022-12-22T20:01:59.498Z,57.89
2022-12-22T20:04:27.491Z,57.92
2022-12-22T20:06:55.396Z,57.88
2022-12-22T20:09:24.549Z,58.57
2022-12-22T20:11:52.416Z,58.59
2022-12-22T20:14:20.652Z,58.19
2022-12-22T20:16:48.610Z,58.25
2022-12-22T20:19:17.128Z,57.99
2022-12-22T20:21:45.456Z,58.73
2022-12-22T20:24:20.174Z,58.52
2022-12-22T20:26:54.145Z,58.41
2022-12-22T20:29:23.633Z,58.22
2022-12-22T20:31:51.453Z,58.60
2022-12-22T20:34:19.414Z,58.48
2022-12-22T20:36:47.326Z,58.33
2022-12-22T20:39:18.796Z,58.59
2022-12-22T20:41:52.554Z,58.16
2022-12-22T20:44:22.967Z,58.36
2022-12-22T20:46:50.875Z,58.80
2022-12-22T20:49:18.683Z,58.23
2022-12-22T20:51:46.650Z,58.42
2022-12-22T20:54:14.851Z,58.27
2022-12-22T20:56:44.595Z,58.62
2022-12-22T20:59:15.829Z,58.19
2022-12-22T21:01:45.850Z,58.90
2022-12-22T21:04:14.948Z,58.61
2022-12-22T21:06:47.873Z,58.73
2022-12-22T21:09:16.197Z,59.46
2022-12-22T21:11:44.213Z,58.45
2022-12-22T21:14:13.176Z,58.31
2022-12-22T21:16:42.226Z,58.70
2022-12-22T21:19:17.212Z,58.41
2022-12-22T21:21:45.044Z,58.59
2022-12-22T21:24:12.838Z,58.44
2022-12-22T21:26:43.792Z,58.22
2022-12-22T21:29:16.579Z,58.81
2022-12-22T21:31:44.291Z,59.18
2022-12-22T21:34:13.434Z,58.88
2022-12-22T21:36:44.517Z,58.17
2022-12-22T21:39:23.273Z,58.33
2022-12-22T21:42:04.548Z,58.81
2022-12-22T21:44:34.046Z,58.71
2022-12-22T21:47:02.735Z,58.54
2022-12-22T21:49:33.684Z,58.18
2022-12-22T21:52:01.736Z,58.25
2022-12-22T21:54:29.651Z,58.23
2022-12-22T21:56:57.608Z,58.76
2022-12-22T21:59:25.389Z,58.56
2022-12-22T22:01:53.750Z,58.56
2022-12-22T22:04:22.701Z,58.31
2022-12-22T22:06:52.017Z,58.87
2022-12-22T22:09:19.932Z,58.47
2022-12-22T22:12:05.689Z,58.73
2022-12-22T22:14:33.571Z,58.91
2022-12-22T22:17:01.360Z,58.27
2022-12-22T22:19:29.249Z,58.37
2022-12-22T22:21:58.376Z,58.28
2022-12-22T22:24:26.283Z,58.49
2022-12-22T22:26:55.867Z,58.28
2022-12-22T22:29:23.908Z,58.51
2022-12-22T22:31:51.814Z,58.60
2022-12-22T22:34:19.767Z,58.29
2022-12-22T22:36:47.712Z,58.69
2022-12-22T22:39:16.992Z,58.73
2022-12-22T22:41:44.798Z,58.45
2022-12-22T22:44:13.190Z,58.78
2022-12-22T22:46:41.654Z,58.32
2022-12-22T22:49:09.800Z,58.35
2022-12-22T22:51:37.642Z,58.31
2022-12-22T22:54:05.719Z,58.61
2022-12-22T22:56:35.456Z,58.73
2022-12-22T22:59:03.735Z,58.74
2022-12-22T23:01:31.968Z,58.30
2022-12-22T23:04:00.014Z,58.23
2022-12-22T23:06:27.866Z,58.25
2022-12-22T23:08:55.732Z,58.26
2022-12-22T23:11:23.695Z,58.55
2022-12-22T23:13:54.756Z,58.29
2022-12-22T23:16:24.428Z,58.63
2022-12-22T23:18:53.943Z,58.26
2022-12-22T23:21:23.378Z,58.44
2022-12-22T23:23:56.090Z,58.33
2022-12-22T23:26:24.443Z,58.30
2022-12-22T23:28:59.169Z,58.00
2022-12-22T23:31:30.895Z,58.25
2022-12-22T23:33:58.758Z,58.31
2022-12-22T23:36:26.712Z,58.04
2022-12-22T23:38:54.728Z,58.18
2022-12-22T23:41:22.674Z,58.54
2022-12-22T23:43:50.796Z,58.45
2022-12-22T23:46:20.158Z,58.21
2022-12-22T23:48:51.779Z,58.52
2022-12-22T23:51:20.478Z,58.27
2022-12-22T23:53:48.278Z,58.72
2022-12-22T23:56:16.507Z,58.22
2022-12-22T23:58:46.201Z,58.17
